Eastern Wv Regional Shepherd Field Martinsburg US
ICAO: KMRB
IATA: MRB
Category: Medium
Scheduled Services: No

Elevation: 565 ft
TransAlt. 18000 ft.

Airport Communications:
POTOMAC APP/DEP:126.1
ASOS:119.925
POTOMAC CLNC DEL:132.075
CTAF:124.3
GND:121.8
PIKESIDE CON ANG:29.7
ELKINS RDO:122.45
MARTINSBURG TWR:124.3
UNICOM:122.95

KMRB Zoom In..

If you have problems with the map follow the link
https://www.worldairports.se/pages/airport.php?
ICAO=KMRB

Runways:

(A) RW 08 length 8815 ft width 150 ft
---- / hdg 79

(B) RW 26 length 8815 ft width 150 ft
ILS 108.30 / hdg 259

Location; KMRB
Day. 24 / Time. 08.31 Zulu
* Altimeter: 29.59
* Temperature: 08° c. 46.4°f.
* Wind from: 150° Speed 07 kn.
Dewpoint: 08° c.
Visibility: 3 Statute Miles.
Clouds: Few 900 ft.
Clouds: Overcast 1000 ft.
Conditions: Light Rain.Conditions: Mist.

KMRB 240831Z AUTO 15007KT 3SM -RA BR FEW009 OVC100 08/08 A2959 RMK AO2 RAB22 PRESFR P0000 T00780078


Wind From 150°
Speed 07 kn.

 
 
jpsmedia.com for Web Design worldairports.se 2019   terms of use